Time;durP1;ratioP1;P1;durP2;ratioP2;P2;SDS_P1;SDS_P2;PMS_P1;PMS_P2;Temp;Humidity;BMP_temperature;BMP_pressure;BME280_temperature;BME280_humidity;BME280_pressure;Samples;Min_cycle;Max_cycle;Signal;HPM_P1;HPM_P2
2022/09/24 00:01:17;;;;;;;8.35;6.30;;;12.60;74.40;;;11.40;100.00;95768.78;5002539;28;20085;-68
2022/09/24 00:03:44;;;;;;;8.52;7.15;;;12.60;74.60;;;11.34;100.00;95762.50;4962736;28;20417;-68
2022/09/24 00:06:13;;;;;;;8.40;6.47;;;12.60;74.70;;;11.31;100.00;95766.31;4942636;28;20387;-66
2022/09/24 00:08:39;;;;;;;8.50;7.13;;;12.60;74.80;;;11.29;100.00;95775.44;4972234;28;20082;-66
2022/09/24 00:11:05;;;;;;;9.43;6.78;;;12.60;74.90;;;11.28;100.00;95773.81;4979675;28;20069;-66
2022/09/24 00:13:32;;;;;;;11.18;7.32;;;12.50;75.00;;;11.25;100.00;95774.22;4999969;28;20033;-66
2022/09/24 00:16:02;;;;;;;11.55;7.53;;;12.50;74.80;;;11.25;100.00;95768.94;4995050;28;20032;-65
2022/09/24 00:18:28;;;;;;;12.77;7.93;;;12.50;74.90;;;11.21;100.00;95762.47;4969917;28;20475;-66
2022/09/24 00:20:54;;;;;;;8.40;6.93;;;12.40;75.00;;;11.16;100.00;95760.44;4955090;28;20062;-66
2022/09/24 00:23:20;;;;;;;11.23;7.28;;;12.40;75.20;;;11.15;100.00;95768.56;4963992;28;20066;-66
2022/09/24 00:28:31;;;;;;;11.98;7.38;;;12.40;75.30;;;11.08;100.00;95760.63;5033828;28;20072;-66
2022/09/24 00:30:57;;;;;;;12.63;7.30;;;12.40;75.40;;;11.08;100.00;95758.00;4993147;28;20050;-68
2022/09/24 00:33:25;;;;;;;9.55;7.32;;;12.40;75.40;;;11.09;100.00;95764.91;4942339;28;20091;-67
2022/09/24 00:35:51;;;;;;;9.25;6.97;;;12.40;75.40;;;11.10;100.00;95757.81;4934810;28;20410;-67
2022/09/24 00:38:18;;;;;;;9.93;7.03;;;12.50;75.30;;;11.10;100.00;95756.00;4995163;28;20031;-67
2022/09/24 00:40:43;;;;;;;10.75;6.97;;;12.50;75.30;;;11.13;100.00;95757.41;4997081;28;20092;-67
2022/09/24 00:43:26;;;;;;;12.77;7.88;;;12.50;75.40;;;11.12;100.00;95758.41;4936093;28;20035;-67
2022/09/24 00:45:57;;;;;;;9.40;6.78;;;12.50;75.50;;;11.11;100.00;95757.63;4968684;28;20413;-66
2022/09/24 00:48:22;;;;;;;;;;;12.50;75.50;;;11.08;100.00;95751.91;4966256;28;20518;-65
2022/09/24 00:50:48;;;;;;;10.05;7.88;;;12.40;75.80;;;11.07;100.00;95752.94;5015182;28;19929;-66
2022/09/24 00:53:17;;;;;;;9.18;7.05;;;12.40;75.80;;;11.07;100.00;95752.94;4984858;28;20035;-65
2022/09/24 00:55:44;;;;;;;9.63;7.32;;;12.40;75.80;;;11.08;100.00;95744.03;4968522;28;20035;-66
2022/09/24 00:58:10;;;;;;;11.60;7.72;;;12.50;75.70;;;11.06;100.00;95736.31;4952880;28;20114;-65
2022/09/24 01:00:37;;;;;;;11.05;7.30;;;12.40;75.70;;;11.03;100.00;95729.66;4969249;28;20396;-66
2022/09/24 01:03:12;;;;;;;10.10;7.15;;;12.40;75.80;;;11.04;100.00;95727.81;4935335;28;20039;-65
2022/09/24 01:05:38;;;;;;;10.48;7.47;;;12.40;75.70;;;11.02;100.00;95728.03;4944061;28;20134;-65
2022/09/24 01:08:12;;;;;;;13.18;8.10;;;12.30;75.70;;;11.01;100.00;95726.41;4950334;28;20054;-68
2022/09/24 01:10:55;;;;;;;13.75;7.22;;;12.30;75.70;;;11.00;100.00;95730.06;4935603;28;20023;-68
2022/09/24 01:14:09;;;;;;;10.38;7.75;;;12.30;75.80;;;11.00;100.00;95719.53;4971303;28;20041;-66
2022/09/24 01:16:49;;;;;;;8.75;7.65;;;12.40;75.60;;;10.97;100.00;95727.00;4991732;28;20039;-66
2022/09/24 01:20:17;;;;;;;14.15;7.15;;;12.30;75.80;;;10.93;100.00;95718.72;4962934;28;20035;-66
2022/09/24 01:23:08;;;;;;;8.88;7.28;;;12.20;75.90;;;10.90;100.00;95723.56;4909793;29;20046;-66
2022/09/24 01:26:44;;;;;;;13.75;8.13;;;12.20;76.10;;;10.86;100.00;95711.78;4914170;28;20036;-66
2022/09/24 01:29:46;;;;;;;11.95;7.80;;;12.20;76.00;;;10.82;100.00;95707.94;4992632;28;20188;-66
2022/09/24 01:32:37;;;;;;;11.77;8.40;;;12.10;76.20;;;10.80;100.00;95702.88;4947273;28;20043;-66
2022/09/24 01:35:20;;;;;;;10.60;8.35;;;12.10;76.20;;;10.78;100.00;95710.16;4969720;28;20122;-66
2022/09/24 01:37:51;;;;;;;11.30;8.38;;;12.10;76.20;;;10.76;100.00;95709.56;4974269;28;20407;-66
2022/09/24 01:40:17;;;;;;;10.38;8.63;;;12.10;76.20;;;10.73;100.00;95707.34;5000008;28;20038;-66
2022/09/24 01:42:43;;;;;;;11.93;7.90;;;12.00;76.40;;;10.70;100.00;95700.66;4950353;28;20367;-66
2022/09/24 01:45:09;;;;;;;10.48;8.57;;;12.00;76.50;;;10.68;100.00;95697.41;4953387;28;20037;-66
2022/09/24 01:47:38;;;;;;;11.05;8.82;;;12.00;76.50;;;10.66;100.00;95699.44;4947087;28;20081;-66
2022/09/24 01:50:15;;;;;;;10.52;8.07;;;11.90;76.50;;;10.60;100.00;95686.25;4985180;28;20498;-66
2022/09/24 01:52:59;;;;;;;9.35;8.02;;;12.00;76.70;;;10.62;100.00;95689.50;4959369;28;20123;-67
2022/09/24 01:55:26;;;;;;;10.15;8.30;;;11.90;76.70;;;10.58;100.00;95689.09;4931965;28;20078;-66
2022/09/24 01:57:58;;;;;;;11.95;8.00;;;11.90;76.80;;;10.57;100.00;95681.41;4955248;28;20042;-66
2022/09/24 02:00:24;;;;;;;10.93;8.10;;;11.90;76.90;;;10.54;100.00;95681.78;4985819;28;20073;-66
2022/09/24 02:02:56;;;;;;;10.05;7.97;;;11.80;76.90;;;10.52;100.00;95678.56;4939756;28;20059;-66
2022/09/24 02:05:35;;;;;;;10.45;8.38;;;11.90;76.90;;;10.52;100.00;95678.56;4962601;28;20550;-66
2022/09/24 02:08:18;;;;;;;10.68;8.35;;;11.80;77.00;;;10.49;100.00;95678.97;4978460;28;20050;-66
2022/09/24 02:10:57;;;;;;;10.60;8.30;;;11.80;77.10;;;10.47;100.00;95680.97;4965924;28;20039;-67
2022/09/24 02:13:25;;;;;;;12.00;8.55;;;11.80;77.20;;;10.43;100.00;95665.59;4951544;28;20063;-66
2022/09/24 02:15:53;;;;;;;28.63;21.42;;;11.80;77.30;;;10.41;100.00;95670.25;4965441;28;20041;-66
2022/09/24 02:18:22;;;;;;;45.50;33.63;;;11.80;77.50;;;10.40;100.00;95671.22;5015159;28;20063;-66
2022/09/24 02:20:47;;;;;;;28.38;21.33;;;11.80;77.70;;;10.39;100.00;95666.16;4999525;28;20033;-66
2022/09/24 02:23:14;;;;;;;12.80;9.55;;;11.80;77.80;;;10.39;100.00;95674.88;4998921;28;20050;-66
2022/09/24 02:26:02;;;;;;;9.80;7.97;;;11.80;77.90;;;10.35;100.00;95668.38;5031081;28;20700;-66
2022/09/24 02:28:28;;;;;;;31.40;22.00;;;11.80;77.60;;;10.36;100.00;95666.56;4996191;28;20108;-67
2022/09/24 02:31:11;;;;;;;33.40;23.70;;;11.70;78.00;;;10.34;100.00;95666.78;5043144;28;20504;-66
2022/09/24 02:36:23;;;;;;;50.47;37.88;;;11.70;78.00;;;10.30;100.00;95660.28;4958248;28;20038;-66
2022/09/24 02:38:50;;;;;;;17.85;14.57;;;11.70;78.00;;;10.31;100.00;95661.91;5030557;28;20438;-67
2022/09/24 02:41:16;;;;;;;10.32;8.50;;;11.60;77.90;;;10.31;100.00;95655.84;5052825;28;20035;-66
2022/09/24 02:43:41;;;;;;;10.18;8.32;;;11.70;77.80;;;10.28;100.00;95654.44;4971703;28;20042;-67
2022/09/24 02:46:08;;;;;;;9.82;8.05;;;11.70;77.90;;;10.28;100.00;95653.63;4933013;28;20127;-67
2022/09/24 02:48:37;;;;;;;11.50;8.38;;;11.60;78.00;;;10.27;100.00;95649.38;4982733;28;20040;-66
2022/09/24 02:51:04;;;;;;;10.38;7.88;;;11.60;78.00;;;10.27;100.00;95655.44;4992352;28;20409;-66
2022/09/24 02:53:31;;;;;;;10.25;8.40;;;11.70;78.10;;;10.26;100.00;95648.56;4973781;28;20040;-66
2022/09/24 02:55:59;;;;;;;9.35;7.50;;;11.60;78.00;;;10.27;100.00;95644.91;4979610;28;20093;-66
2022/09/24 02:58:24;;;;;;;9.70;8.25;;;11.70;78.10;;;10.27;100.00;95644.91;5004127;28;20049;-66
2022/09/24 03:00:50;;;;;;;10.20;7.72;;;11.60;78.10;;;10.26;100.00;95643.31;4947536;28;20047;-67
2022/09/24 03:03:16;;;;;;;11.82;8.48;;;11.60;78.10;;;10.27;100.00;95634.41;4959374;28;20069;-66
2022/09/24 03:05:42;;;;;;;48.15;38.63;;;11.70;78.20;;;10.29;100.00;95632.38;4964956;28;20100;-67
2022/09/24 03:08:07;;;;;;;18.23;12.90;;;11.70;78.50;;;10.31;100.00;95634.81;5002779;28;20035;-67
2022/09/24 03:10:33;;;;;;;43.33;34.83;;;11.70;78.40;;;10.31;100.00;95627.75;5018618;28;20032;-67
2022/09/24 03:12:59;;;;;;;64.05;47.00;;;11.70;78.30;;;10.32;100.00;95637.25;5005264;28;20030;-66
2022/09/24 03:15:25;;;;;;;18.60;14.90;;;11.80;78.10;;;10.35;100.00;95634.22;5048670;28;20078;-67
2022/09/24 03:17:51;;;;;;;10.15;8.18;;;11.80;78.10;;;10.35;100.00;95639.47;4980815;28;20031;-67
2022/09/24 03:20:16;;;;;;;9.48;7.40;;;11.80;78.00;;;10.37;100.00;95632.19;5008634;28;20496;-67
2022/09/24 03:22:42;;;;;;;9.82;7.18;;;11.80;78.00;;;10.36;100.00;95640.28;4999696;28;20044;-66
2022/09/24 03:25:09;;;;;;;13.43;6.88;;;11.80;77.90;;;10.36;100.00;95643.72;4994372;28;20157;-67
2022/09/24 03:27:35;;;;;;;10.23;6.40;;;11.80;78.00;;;10.36;100.00;95642.91;4947910;28;20647;-67
2022/09/24 03:32:47;;;;;;;14.55;11.70;;;11.80;78.10;;;10.36;100.00;95641.09;4959067;28;20100;-68
2022/09/24 03:35:14;;;;;;;22.77;19.63;;;11.80;78.20;;;10.38;100.00;95640.88;5048421;28;20054;-68
2022/09/24 03:37:42;;;;;;;26.23;22.42;;;11.80;78.10;;;10.43;100.00;95649.81;4974095;28;20506;-66
2022/09/24 03:40:08;;;;;;;23.75;18.00;;;11.90;78.20;;;10.46;100.00;95642.53;4988496;28;20049;-67
2022/09/24 03:42:34;;;;;;;22.88;18.60;;;11.90;78.00;;;10.48;100.00;95645.78;5042038;28;20078;-65
2022/09/24 03:44:59;;;;;;;13.65;10.32;;;12.00;77.90;;;10.46;100.00;95645.19;5023213;28;20445;-67
2022/09/24 03:47:25;;;;;;;11.32;9.73;;;11.90;77.70;;;10.49;100.00;95642.16;4964218;28;20080;-66
2022/09/24 03:49:52;;;;;;;30.83;24.60;;;11.90;77.80;;;10.51;100.00;95648.81;4986436;28;20478;-66
2022/09/24 03:52:18;;;;;;;33.78;27.63;;;12.00;77.80;;;10.52;100.00;95644.38;5024431;28;20526;-66
2022/09/24 03:54:43;;;;;;;13.18;10.82;;;12.00;77.60;;;10.50;100.00;95635.88;5015222;28;20040;-66
2022/09/24 03:57:13;;;;;;;9.43;8.02;;;12.00;77.60;;;10.50;100.00;95633.25;5027582;28;20058;-66
2022/09/24 03:59:40;;;;;;;10.48;8.00;;;12.00;77.60;;;10.50;100.00;95618.28;4956857;28;20035;-66
2022/09/24 04:02:07;;;;;;;9.45;8.02;;;12.00;77.60;;;10.50;100.00;95622.72;4986108;28;20080;-66
2022/09/24 04:04:32;;;;;;;9.10;7.65;;;11.90;77.90;;;10.49;100.00;95626.38;4999077;28;20621;-66
2022/09/24 04:06:58;;;;;;;10.48;7.47;;;11.80;78.00;;;10.49;100.00;95626.38;4989639;28;20039;-66
2022/09/24 04:09:24;;;;;;;9.95;7.68;;;11.90;78.00;;;10.49;100.00;95618.47;5026602;28;20406;-66
2022/09/24 04:11:53;;;;;;;8.48;7.50;;;11.90;77.90;;;10.50;100.00;95628.00;5020854;28;20035;-66
2022/09/24 04:14:19;;;;;;;8.77;7.75;;;11.90;77.70;;;10.48;100.00;95622.13;4968882;28;20042;-66
2022/09/24 04:16:45;;;;;;;10.63;7.40;;;11.90;77.90;;;10.48;100.00;95622.94;4970819;28;20027;-67
2022/09/24 04:19:12;;;;;;;8.30;7.28;;;11.90;78.00;;;10.49;100.00;95613.22;4992067;28;20517;-67
2022/09/24 04:21:37;;;;;;;8.93;7.40;;;11.90;77.70;;;10.47;100.00;95617.88;5011661;28;20034;-66
2022/09/24 04:24:04;;;;;;;10.13;7.20;;;11.90;77.90;;;10.46;100.00;95616.25;4949895;28;20031;-67
2022/09/24 04:26:29;;;;;;;9.15;7.43;;;11.90;77.90;;;10.46;100.00;95606.53;4965525;28;20042;-69
2022/09/24 04:28:58;;;;;;;8.73;7.53;;;11.90;77.80;;;10.45;100.00;95609.38;4950588;28;20035;-68
2022/09/24 04:31:26;;;;;;;8.90;7.35;;;11.90;77.90;;;10.44;100.00;95608.56;4997697;28;20415;-69
2022/09/24 04:33:52;;;;;;;28.70;20.25;;;11.80;78.20;;;10.44;100.00;95600.69;5022649;28;20038;-69
2022/09/24 04:36:19;;;;;;;90.70;68.05;;;11.90;78.20;;;10.45;100.00;95609.38;5059823;28;20044;-68
2022/09/24 04:38:45;;;;;;;19.38;14.48;;;11.90;78.00;;;10.43;100.00;95602.50;5039802;28;20051;-69
2022/09/24 04:41:11;;;;;;;11.07;8.85;;;11.90;77.80;;;10.43;100.00;95614.84;5044080;28;20396;-70
2022/09/24 04:43:37;;;;;;;10.25;7.97;;;11.90;77.70;;;10.45;100.00;95609.38;5070536;28;20043;-68
2022/09/24 04:46:03;;;;;;;10.45;7.15;;;11.90;77.80;;;10.43;100.00;95606.94;5028099;28;20117;-68
2022/09/24 04:48:29;;;;;;;8.93;7.63;;;11.90;77.90;;;10.45;100.00;95609.38;4952396;28;20027;-69
2022/09/24 04:50:55;;;;;;;10.23;7.15;;;11.90;78.10;;;10.42;100.00;95600.88;4960453;28;20073;-70
2022/09/24 04:53:21;;;;;;;8.00;7.10;;;11.90;78.00;;;10.42;100.00;95606.13;4974998;28;20051;-68
2022/09/24 04:55:47;;;;;;;10.80;8.45;;;11.90;77.90;;;10.41;100.00;95604.53;5028782;28;20112;-69
2022/09/24 04:58:13;;;;;;;17.55;14.02;;;11.90;78.20;;;10.44;100.00;95608.56;5027791;28;20040;-69
2022/09/24 05:00:39;;;;;;;16.70;14.80;;;12.00;78.40;;;10.47;100.00;95607.34;5086999;28;20108;-69
2022/09/24 05:03:05;;;;;;;13.38;8.38;;;12.00;78.30;;;10.48;100.00;95606.34;5069432;28;20124;-69
2022/09/24 05:05:31;;;;;;;9.55;7.75;;;12.00;78.20;;;10.50;100.00;95606.94;5065247;28;20037;-69
2022/09/24 05:07:57;;;;;;;10.32;7.63;;;12.00;78.20;;;10.50;100.00;95606.94;5010810;28;20035;-70
2022/09/24 05:10:24;;;;;;;9.60;7.43;;;12.00;78.20;;;10.48;100.00;95603.72;5019869;28;20449;-69
2022/09/24 05:12:50;;;;;;;9.80;7.25;;;12.00;78.20;;;10.48;100.00;95598.47;5070992;28;20033;-69
2022/09/24 05:15:18;;;;;;;10.32;7.75;;;12.00;78.30;;;10.48;100.00;95596.63;5060884;28;20032;-68
2022/09/24 05:17:44;;;;;;;9.05;7.32;;;11.90;78.40;;;10.47;100.00;95583.69;4969171;28;20066;-69
2022/09/24 05:20:10;;;;;;;8.75;6.80;;;12.00;78.50;;;10.44;100.00;95592.78;4968698;28;20519;-70
2022/09/24 05:22:43;;;;;;;9.63;7.63;;;12.00;78.70;;;10.46;100.00;95589.97;5027687;28;20040;-69
2022/09/24 05:25:10;;;;;;;8.70;6.65;;;12.00;78.70;;;10.49;100.00;95594.81;5069039;28;20032;-70
2022/09/24 05:27:36;;;;;;;9.00;6.78;;;12.00;78.60;;;10.49;100.00;95595.63;5052985;28;20036;-68
2022/09/24 05:30:05;;;;;;;8.98;7.20;;;12.00;78.50;;;10.53;100.00;95601.28;4977418;28;20049;-69
2022/09/24 05:32:32;;;;;;;15.40;7.63;;;12.10;78.60;;;10.54;100.00;95608.16;5026229;28;20038;-69
2022/09/24 05:34:58;;;;;;;11.73;7.55;;;12.10;78.40;;;10.55;100.00;95604.53;4967691;28;20043;-68
2022/09/24 05:37:24;;;;;;;10.60;7.40;;;12.10;78.30;;;10.56;100.00;95614.03;4975851;28;20502;-69
2022/09/24 05:39:49;;;;;;;7.00;6.15;;;12.10;78.40;;;10.58;100.00;95609.38;5028231;28;20029;-69
2022/09/24 05:42:15;;;;;;;8.95;7.25;;;12.10;78.30;;;10.60;100.00;95617.88;5069359;28;20133;-69
2022/09/24 05:44:42;;;;;;;8.13;6.82;;;12.10;78.00;;;10.62;100.00;95607.97;5070409;28;20036;-70
2022/09/24 05:47:08;;;;;;;9.35;6.70;;;12.20;78.20;;;10.66;100.00;95603.94;4980869;28;20031;-69
2022/09/24 05:49:34;;;;;;;8.32;6.85;;;12.30;78.30;;;10.69;100.00;95608.78;4948159;28;20118;-71
2022/09/24 05:52:00;;;;;;;12.90;6.90;;;12.30;78.40;;;10.73;100.00;95610.00;4962184;28;20088;-68
2022/09/24 05:54:26;;;;;;;9.48;7.05;;;12.30;78.30;;;10.76;100.00;95606.97;5022232;28;20437;-69
2022/09/24 05:56:52;;;;;;;11.20;7.70;;;12.40;78.00;;;10.80;100.00;95607.38;5069010;28;20041;-68
2022/09/24 05:59:17;;;;;;;9.05;7.30;;;12.50;77.80;;;10.85;100.00;95597.84;5068444;28;20029;-69
2022/09/24 06:01:43;;;;;;;11.10;7.20;;;12.50;78.00;;;10.91;100.00;95594.44;5058227;28;20024;-69
2022/09/24 06:04:10;;;;;;;8.57;6.82;;;12.60;77.90;;;10.99;100.00;95601.31;4993242;28;20034;-70
2022/09/24 06:06:36;;;;;;;11.70;7.18;;;12.70;77.70;;;11.07;100.00;95608.97;4978341;28;20021;-69
2022/09/24 06:09:02;;;;;;;8.35;7.13;;;12.80;77.30;;;11.14;100.00;95611.63;5067543;28;20546;-70
2022/09/24 06:11:33;;;;;;;8.98;6.85;;;12.90;77.00;;;11.21;100.00;95604.53;5070167;28;20062;-68
2022/09/24 06:14:02;;;;;;;8.05;7.05;;;13.00;76.90;;;11.29;100.00;95601.66;5068636;28;20037;-69
2022/09/24 06:16:28;;;;;;;11.77;7.38;;;13.10;76.90;;;11.37;100.00;95608.56;4993446;28;20502;-69
2022/09/24 06:18:53;;;;;;;8.25;6.97;;;13.20;76.60;;;11.45;100.00;95611.78;4996985;28;20044;-70
2022/09/24 06:21:20;;;;;;;13.20;7.75;;;13.20;76.50;;;11.51;100.00;95592.50;4977290;28;20031;-70
2022/09/24 06:23:45;;;;;;;7.60;6.80;;;13.40;76.60;;;11.62;100.00;95604.25;4967400;28;20465;-70
2022/09/24 06:26:12;;;;;;;8.40;6.57;;;13.50;76.70;;;11.70;100.00;95611.09;4951127;28;20043;-67
2022/09/24 06:28:38;;;;;;;9.95;6.72;;;13.60;76.20;;;11.80;100.00;95619.41;4968054;28;20053;-68
2022/09/24 06:31:04;;;;;;;7.10;6.38;;;13.60;76.20;;;11.86;100.00;95614.13;4948864;28;20038;-68
2022/09/24 06:33:31;;;;;;;8.20;7.38;;;13.70;75.90;;;11.92;100.00;95618.53;4965637;28;20506;-68
2022/09/24 06:36:01;;;;;;;10.35;6.93;;;13.80;75.70;;;11.98;100.00;95619.53;4998707;28;20044;-69
2022/09/24 06:38:27;;;;;;;9.93;8.40;;;13.90;75.90;;;12.11;100.00;95616.03;5007989;28;20031;-68
2022/09/24 06:40:58;;;;;;;13.95;11.48;;;14.00;75.90;;;12.15;100.00;95610.13;4972601;28;20465;-69
2022/09/24 06:43:24;;;;;;;;;;;14.10;75.70;;;12.25;100.00;95614.97;5011194;28;20039;-69
2022/09/24 06:45:50;;;;;;;11.95;9.85;;;14.20;75.70;;;12.31;100.00;95616.75;4976540;28;20301;-67
2022/09/24 06:48:16;;;;;;;14.57;10.23;;;14.20;75.60;;;12.38;100.00;95612.25;4987214;28;20055;-68
2022/09/24 06:50:43;;;;;;;12.90;9.15;;;14.20;75.80;;;12.45;100.00;95622.78;4962839;28;20506;-69
2022/09/24 06:53:10;;;;;;;11.23;9.38;;;14.20;75.80;;;12.46;100.00;95611.19;4963918;28;20061;-69
2022/09/24 06:55:37;;;;;;;11.27;9.20;;;14.20;75.70;;;12.50;100.00;95617.66;4977963;28;20025;-68
2022/09/24 06:58:05;;;;;;;10.50;7.80;;;14.20;75.80;;;12.53;100.00;95614.59;4947586;28;20057;-68
2022/09/24 07:00:30;;;;;;;8.52;7.28;;;14.20;75.60;;;12.55;100.00;95615.19;5007627;28;20124;-67
2022/09/24 07:02:56;;;;;;;9.52;7.45;;;14.30;75.70;;;12.55;100.00;95625.75;5047243;28;20029;-68
2022/09/24 07:05:22;;;;;;;9.05;6.85;;;14.20;76.00;;;12.57;100.00;95624.50;4995399;28;20517;-69
2022/09/24 07:07:48;;;;;;;8.32;6.15;;;14.20;75.80;;;12.57;100.00;95626.34;4980764;28;20537;-71
2022/09/24 07:10:14;;;;;;;8.93;6.55;;;14.20;75.80;;;12.66;100.00;95626.88;4962116;28;20441;-67
2022/09/24 07:12:40;;;;;;;10.38;6.28;;;14.40;75.60;;;12.70;100.00;95633.38;4984146;28;20110;-69
2022/09/24 07:15:07;;;;;;;8.43;6.00;;;14.40;75.30;;;12.72;100.00;95628.69;4965073;28;20041;-69
2022/09/24 07:17:32;;;;;;;8.93;6.70;;;14.40;75.30;;;12.74;100.00;95626.63;4949153;28;20046;-68
2022/09/24 07:19:58;;;;;;;9.00;7.60;;;14.40;74.80;;;12.74;100.00;95631.91;4966880;28;20034;-68
2022/09/24 07:22:24;;;;;;;11.38;9.45;;;14.40;75.10;;;12.72;100.00;95629.50;4979843;28;20484;-67
2022/09/24 07:24:50;;;;;;;12.68;8.77;;;14.40;75.20;;;12.74;100.00;95632.72;4989668;28;20502;-68
2022/09/24 07:27:15;;;;;;;10.35;7.03;;;14.40;76.00;;;12.73;100.00;95639.03;4966976;28;20039;-70
2022/09/24 07:29:41;;;;;;;8.55;6.97;;;14.40;76.30;;;12.73;100.00;95635.59;4951976;28;20506;-70
2022/09/24 07:32:07;;;;;;;9.07;7.45;;;14.30;76.90;;;12.75;100.00;95638.81;4972185;28;20065;-69
2022/09/24 07:34:33;;;;;;;12.70;8.98;;;14.40;77.20;;;12.75;100.00;95639.63;4976918;28;20044;-69
2022/09/24 07:36:58;;;;;;;22.90;18.92;;;14.40;77.00;;;12.80;100.00;95644.25;4995571;28;20035;-66
2022/09/24 07:39:24;;;;;;;12.27;9.70;;;14.50;77.50;;;12.82;100.00;95650.94;4992109;28;20120;-67
2022/09/24 07:41:51;;;;;;;10.98;7.30;;;14.50;77.20;;;12.87;100.00;95655.56;4969333;28;20031;-67
2022/09/24 07:44:19;;;;;;;10.68;8.25;;;14.60;76.90;;;12.91;100.00;95653.31;5026486;28;20035;-67
2022/09/24 07:46:47;;;;;;;9.23;7.65;;;14.60;77.00;;;12.94;100.00;95648.44;4998017;28;20046;-67
2022/09/24 07:49:15;;;;;;;10.13;6.68;;;14.70;76.80;;;12.97;100.00;95650.63;4979167;28;20046;-67
2022/09/24 07:51:41;;;;;;;7.40;5.80;;;14.70;76.30;;;13.02;100.00;95660.53;5010444;28;20036;-67
2022/09/24 07:54:07;;;;;;;7.55;6.18;;;14.80;76.00;;;13.06;100.00;95659.09;5011265;28;20790;-67
2022/09/24 07:56:32;;;;;;;8.43;6.28;;;14.80;76.00;;;13.07;100.00;95650.13;4993387;28;20032;-67
2022/09/24 07:58:58;;;;;;;8.52;6.68;;;14.80;76.30;;;13.12;100.00;95660.84;5053699;28;20052;-67
2022/09/24 08:01:25;;;;;;;10.32;8.07;;;14.80;76.70;;;13.12;100.00;95669.59;5011811;28;20051;-67
2022/09/24 08:03:51;;;;;;;9.98;7.78;;;14.70;76.90;;;13.13;100.00;95668.59;5018308;28;20040;-67
2022/09/24 08:06:17;;;;;;;9.48;6.95;;;14.80;77.00;;;13.11;100.00;95670.59;4999264;28;20035;-67
2022/09/24 08:08:43;;;;;;;8.55;6.40;;;14.60;76.60;;;13.09;100.00;95670.03;5028484;28;20039;-67
2022/09/24 08:11:11;;;;;;;8.20;6.75;;;14.60;77.00;;;13.05;100.00;95668.84;5030288;28;20033;-67
2022/09/24 08:13:37;;;;;;;7.60;5.85;;;14.60;77.50;;;13.05;100.00;95668.84;4985691;28;20035;-67
2022/09/24 08:16:05;;;;;;;9.82;5.93;;;14.60;77.60;;;13.04;100.00;95666.41;4949453;28;20041;-67
2022/09/24 08:18:31;;;;;;;6.57;5.03;;;14.60;77.60;;;13.02;100.00;95660.53;4966075;28;20035;-67
2022/09/24 08:21:12;;;;;;;8.52;5.60;;;14.60;77.40;;;13.05;100.00;95665.38;4972656;28;20038;-67
2022/09/24 08:23:41;;;;;;;8.85;6.78;;;14.70;77.50;;;13.06;100.00;95661.72;4951301;28;20134;-67
2022/09/24 08:26:07;;;;;;;9.73;6.78;;;14.80;77.40;;;13.12;100.00;95666.13;4967242;28;20080;-67
2022/09/24 08:28:33;;;;;;;6.95;5.57;;;14.90;77.40;;;13.15;100.00;95669.19;4974135;28;20418;-67
2022/09/24 08:30:59;;;;;;;7.05;5.60;;;14.80;77.00;;;13.16;100.00;95670.00;5008129;28;20117;-70
2022/09/24 08:33:30;;;;;;;7.57;5.13;;;14.80;77.70;;;13.19;100.00;95669.59;5011745;28;20081;-73
2022/09/24 08:35:58;;;;;;;7.18;5.13;;;14.80;77.70;;;13.22;100.00;95679.72;4953139;28;20556;-73
2022/09/24 08:38:24;;;;;;;6.10;5.13;;;14.80;77.40;;;13.22;100.00;95671.78;4968837;28;20047;-68
2022/09/24 08:41:11;;;;;;;9.25;6.00;;;14.80;77.60;;;13.25;100.00;95679.28;4967641;28;20030;-67
2022/09/24 08:43:49;;;;;;;8.32;6.82;;;14.90;77.40;;;13.30;100.00;95676.78;5011492;28;20523;-68
2022/09/24 08:49:46;;;;;;;8.27;6.07;;;15.10;77.50;;;13.45;100.00;95677.28;4967583;28;20200;-67
2022/09/24 08:52:31;;;;;;;8.52;6.65;;;15.20;77.50;;;13.53;100.00;95678.84;4955960;28;20501;-68
2022/09/24 08:55:01;;;;;;;7.95;6.43;;;15.20;78.20;;;13.60;100.00;95673.50;4995731;28;20529;-67
2022/09/24 08:57:27;;;;;;;9.13;6.33;;;15.40;78.30;;;13.67;100.00;95676.88;4978409;28;20706;-65
2022/09/24 08:59:53;;;;;;;7.65;5.70;;;15.60;77.60;;;13.77;100.00;95675.34;4959566;28;20282;-66
2022/09/24 09:02:39;;;;;;;6.53;5.82;;;15.80;77.40;;;13.92;100.00;95677.63;5018504;28;20034;-66
2022/09/24 09:05:39;;;;;;;7.47;5.72;;;15.80;77.20;;;14.05;100.00;95676.69;4968868;28;20043;-65
2022/09/24 09:08:16;;;;;;;13.73;10.13;;;16.10;77.20;;;14.14;100.00;95677.19;5038742;28;20062;-67
2022/09/24 09:10:42;;;;;;;7.95;6.60;;;16.10;76.50;;;14.25;100.00;95681.72;5067631;28;20044;-67
2022/09/24 09:13:22;;;;;;;7.10;6.15;;;16.20;75.90;;;14.35;100.00;95682.03;5026139;28;20112;-66
2022/09/24 09:16:02;;;;;;;7.38;6.30;;;16.30;75.70;;;14.44;100.00;95688.66;4995623;28;20034;-65
2022/09/24 09:18:40;;;;;;;11.02;8.73;;;16.30;75.90;;;14.52;100.00;95693.66;4970082;28;20113;-65
2022/09/24 09:21:16;;;;;;;9.90;8.43;;;16.40;76.00;;;14.58;100.00;95686.66;4966879;28;20074;-66
2022/09/24 09:23:50;;;;;;;10.13;7.78;;;16.40;76.00;;;14.65;100.00;95688.19;4936842;28;20529;-67
2022/09/24 09:26:19;;;;;;;7.22;6.03;;;16.50;75.90;;;14.70;100.00;95685.66;5002642;28;20121;-65
2022/09/24 09:28:45;;;;;;;8.02;5.90;;;16.50;75.80;;;14.79;100.00;95680.06;5010702;28;20037;-66
2022/09/24 09:31:30;;;;;;;7.13;5.47;;;16.70;75.90;;;14.91;100.00;95691.50;5026008;28;20385;-66
2022/09/24 09:34:28;;;;;;;7.65;5.72;;;16.80;75.60;;;14.96;100.00;95686.34;4992195;28;20046;-67
2022/09/24 09:37:09;;;;;;;9.60;8.05;;;16.80;75.40;;;15.00;100.00;95685.66;4976624;28;20127;-67
2022/09/24 09:39:49;;;;;;;13.57;11.48;;;16.80;75.50;;;15.08;100.00;95684.53;4966912;28;20037;-67
2022/09/24 09:42:30;;;;;;;8.48;6.78;;;17.00;75.50;;;15.17;100.00;95682.38;4953033;28;20035;-68
2022/09/24 09:44:59;;;;;;;8.02;5.95;;;17.10;75.50;;;15.25;100.00;95693.44;4967437;28;20109;-67
2022/09/24 09:47:42;;;;;;;33.25;15.57;;;17.30;75.10;;;15.39;100.00;95694.03;4984017;28;20046;-67
2022/09/24 09:50:35;;;;;;;18.15;12.65;;;17.50;75.30;;;15.52;100.00;95693.00;4936697;28;20127;-67
2022/09/24 09:53:03;;;;;;;19.17;9.75;;;17.60;74.50;;;15.59;100.00;95689.22;4995368;28;20028;-68
2022/09/24 09:55:32;;;;;;;9.80;7.18;;;17.60;74.40;;;15.72;100.00;95682.09;5063310;28;20052;-68
2022/09/24 09:58:17;;;;;;;8.00;5.78;;;17.80;73.90;;;15.82;100.00;95687.59;4983223;28;20038;-68
2022/09/24 10:00:43;;;;;;;6.53;5.38;;;17.80;73.50;;;15.88;100.00;95686.69;4967796;28;20430;-68
2022/09/24 10:03:32;;;;;;;5.70;4.63;;;17.90;73.60;;;15.97;100.00;95680.00;4982825;28;20041;-68
2022/09/24 10:06:03;;;;;;;6.55;4.40;;;18.00;73.60;;;16.01;100.00;95686.44;5000411;28;20067;-68
2022/09/24 10:08:29;;;;;;;6.47;4.47;;;17.80;72.00;;;16.04;100.00;95690.47;4996109;28;20553;-68
2022/09/24 10:10:59;;;;;;;7.68;5.18;;;17.80;72.90;;;16.06;100.00;95688.38;5024044;28;20032;-68
2022/09/24 10:13:25;;;;;;;6.47;5.05;;;17.80;73.90;;;16.08;100.00;95694.28;5051418;28;20415;-67
2022/09/24 10:16:03;;;;;;;6.70;5.38;;;17.80;73.90;;;16.06;100.00;95699.00;4981013;28;20034;-68
2022/09/24 10:18:40;;;;;;;6.25;5.15;;;17.70;74.50;;;16.00;100.00;95689.31;4996388;28;20036;-67
2022/09/24 10:21:10;;;;;;;5.63;5.03;;;17.60;73.80;;;15.95;100.00;95689.22;4986709;28;20134;-67
2022/09/24 10:23:46;;;;;;;5.80;5.13;;;17.60;74.60;;;15.93;100.00;95692.13;4936036;28;20532;-68
2022/09/24 10:26:11;;;;;;;5.95;4.85;;;17.50;74.60;;;15.87;100.00;95696.50;4936607;28;20034;-68
2022/09/24 10:31:40;;;;;;;10.52;5.63;;;17.40;75.10;;;15.78;100.00;95689.91;4994987;28;20153;-68
2022/09/24 10:34:27;;;;;;;7.65;5.32;;;17.30;75.00;;;15.74;100.00;95683.47;4950745;28;20038;-67